Huy, Belgium
Current Conditions -  °F | °C
As of 3:50 AM on Tuesday 23 Dec 2014 (Local Time) from EBLG Reporting Station
Broken Clouds Broken Clouds  
Wind Chill: 50°   Ceiling: 2400
Heat Index: 50°   Visibility: 6mi
Dew Point: 43°   Wind: 20mph
Humidity: 76%   Direction: 240°WSW
Pressure: 30.15"   Gusts: NA
Location:  50.52°N, 5.23°E
Report Text: EBLG 230250Z 24017KT 9999 BKN024 10/06 Q1021 TEMPO 24020G32KT
Loading
Personal Weather Stations






























Interactive Weather Map New forecast layout! Learn more

10-Day Weather Forecast

Advertisements
Track Severe Weather on mobile